Caldwell, Texas
Current Conditions -  °F | °C
As of 8:55 AM on Sunday 23 Nov 2014 (Local Time) from KRWV Reporting Station
Clear Clear  
Wind Chill: 61°   Ceiling: Unl
Heat Index: 61°   Visibility: 10mi
Dew Point: 61°   Wind: 9mph
Humidity: 100%   Direction: 220°SW
Pressure: 29.68"   Gusts: NA
Location:  30.53°N, 96.69°W
Report Text: KRWV 231455Z AUTO 22008KT 10SM CLR 16/16 A2968 RMK AO2
Loading
Personal Weather Stations






























Interactive Weather Map New forecast layout! Learn more

10-Day Weather Forecast

Advertisements
Track Severe Weather on mobile